Latest Coastal Weather Observations for Cape Nelson

IDS60701

Issued at 3:11 pm CDT Monday 6 December 2021 (issued every 10 minutes, with the page automatically refreshed every 10 minutes)

About coastal observations | Map of coastal stations | Coastal observations for SA | Marine services | Other Formats
Station Details ID: 090184 Name: CAPE NELSON LIGHTHOUSE Lat: -38.43 Lon: 141.54 Height: 45.4 m
Data from the previous 72 hours. | See also: Recent months at Cape Nelson
Date/Time
CDT
Wind Sea
Height
m
Swell Vis
km
Cloud Weather Temp
°C
Press
MSL
hPa
Rain since
9am
mm
Dir  Spd
kts
Gust
kts
Height
m
Period
s
Dir
06/03:00pm W 15 18 - - - - - - - 18.5 1009.8 0.0
06/02:30pm W 11 15 - - - - - - - 19.3 1009.8 0.0
06/02:00pm W 12 15 - - - - - - - 19.0 1009.9 0.0
06/01:30pm W 13 17 - - - - - - - 18.7 1010.2 0.0
06/01:00pm W 11 14 - - - - - - - 19.0 1010.2 0.0
06/12:30pm W 9 11 - - - - - - - 18.8 1010.5 0.0
06/12:00pm WSW 9 12 - - - - - - - 17.6 1010.5 0.0
06/11:30am WSW 5 7 - - - - - - - 18.7 1010.6 0.0
06/11:00am WSW 8 9 - - - - - - - 18.1 1010.8 0.0
06/10:30am W 7 12 - - - - - - - 18.9 1011.0 0.0
06/10:00am NW 6 10 - - - - - - - 21.3 1011.3 0.0
06/09:30am N 5 9 - - - - - - - 20.2 1011.6 0.0
06/09:00am NE 6 10 - - - - - - - 18.9 1011.9 0.0
06/08:30am NNE 7 10 - - - - - - - 17.9 1011.9 0.0
06/08:00am NE 9 14 - - - - - - - 16.8 1012.0 0.0
06/07:30am NE 9 12 - - - - - - - 15.5 1012.1 0.0
06/07:00am NE 9 13 - - - - - - - 14.1 1012.2 0.0
06/06:30am NE 9 13 - - - - - - - 13.1 1012.4 0.0
06/06:00am NE 9 12 - - - - - - - 12.6 1012.6 0.0
06/05:30am NE 9 10 - - - - - - - 12.0 1012.7 0.0
06/05:00am NE 8 11 - - - - - - - 11.9 1012.8 0.0
06/04:30am NE 8 10 - - - - - - - 12.1 1013.1 0.0
06/04:00am NE 8 11 - - - - - - - 12.6 1013.2 0.0
06/03:30am NE 7 9 - - - - - - - 12.6 1013.5 0.0
06/03:00am NE 8 11 - - - - - - - 13.2 1013.7 0.0
06/02:30am NE 9 13 - - - - - - - 13.5 1013.8 0.0
06/02:00am ENE 10 14 - - - - - - - 13.8 1014.3 0.0
06/01:30am E 11 16 - - - - - - - 13.9 1015.0 0.0
06/01:00am E 12 16 - - - - - - - 13.9 1015.6 0.0
06/12:30am E 13 16 - - - - - - - 13.8 1016.1 0.0
06/12:00am E 13 16 - - - - - - - 13.6 1016.5 0.0
 
Date/Time
CDT
Wind Sea
Height
m
Swell Vis
km
Cloud Weather Temp
°C
Press
MSL
hPa
Rain since
9am
mm
Dir  Spd
kts
Gust
kts
Height
m
Period
s
Dir
05/11:30pm E 15 18 - - - - - - - 13.7 1017.0 0.0
05/11:00pm E 14 18 - - - - - - - 13.5 1017.1 0.0
05/10:30pm E 13 17 - - - - - - - 13.4 1017.6 0.0
05/10:00pm E 12 16 - - - - - - - 13.3 1017.6 0.0
05/09:30pm ESE 11 16 - - - - - - - 13.1 1018.1 0.0
05/09:00pm ESE 10 14 - - - - - - - 13.2 1018.3 0.0
05/08:30pm E 10 15 - - - - - - - 13.2 1018.6 0.0
05/08:00pm E 10 16 - - - - - - - 13.3 1018.9 0.0
05/07:30pm ESE 10 16 - - - - - - - 13.5 1018.6 0.0
05/07:00pm ESE 9 13 - - - - - - - 14.0 1018.7 0.0
05/06:30pm ESE 9 14 - - - - - - - 14.3 1018.9 0.0
05/06:00pm ESE 10 14 - - - - - - - 14.6 1018.7 0.0
05/05:30pm ESE 8 13 - - - - - - - 15.3 1019.0 0.0
05/05:00pm ESE 9 13 - - - - - - - 15.3 1019.0 0.0
05/04:30pm ESE 10 14 - - - - - - - 15.4 1019.2 0.0
05/04:00pm ESE 10 14 - - - - - - - 15.8 1019.4 0.0
05/03:30pm ESE 10 15 - - - - - - - 15.8 1019.6 0.0
05/03:00pm ESE 9 14 - - - - - - - 15.9 1019.9 0.0
05/02:30pm ESE 10 14 - - - - - - - 15.9 1020.2 0.0
05/02:00pm ESE 10 17 - - - - - - - 16.0 1020.4 0.0
05/01:30pm E 13 16 - - - - - - - 16.3 1020.8 0.0
05/01:00pm E 13 17 - - - - - - - 16.2 1021.0 0.0
05/12:30pm E 12 15 - - - - - - - 16.3 1021.4 0.0
05/12:00pm E 13 17 - - - - - - - 16.3 1021.8 0.0
05/11:30am E 13 16 - - - - - - - 16.3 1022.0 0.0
05/11:00am E 12 16 - - - - - - - 15.3 1022.4 0.0
05/10:30am E 13 16 - - - - - - - 15.9 1022.4 0.0
05/10:00am E 13 15 - - - - - - - 15.7 1022.6 0.0
05/09:30am E 11 15 - - - - - - - 15.3 1022.7 0.0
05/09:00am E 12 17 - - - - - - - 14.7 1022.6 0.0
05/08:30am E 12 16 - - - - - - - 13.8 1022.7 0.4
05/08:00am E 11 15 - - - - - - - 14.5 1022.4 0.4
05/07:30am E 9 13 - - - - - - - 14.0 1022.4 0.4
05/07:00am E 10 14 - - - - - - - 13.4 1022.3 0.4
05/06:30am ESE 8 11 - - - - - - - 13.3 1021.9 0.4
05/06:00am E 8 11 - - - - - - - 12.5 1021.8 0.4
05/05:30am ESE 7 10 - - - - - - - 12.1 1021.6 0.4
05/05:00am SE 7 11 - - - - - - - 12.1 1021.6 0.4
05/04:30am SE 7 9 - - - - - - - 12.2 1021.7 0.4
05/04:00am SE 9 11 - - - - - - - 12.3 1021.6 0.4
05/03:30am SE 8 11 - - - - - - - 12.3 1022.0 0.4
05/03:00am SE 7 10 - - - - - - - 12.2 1022.0 0.4
05/02:30am SE 7 9 - - - - - - - 12.2 1022.2 0.4
05/02:00am SSE 8 11 - - - - - - - 12.3 1022.6 0.4
05/01:30am SE 8 11 - - - - - - - 12.4 1022.7 0.4
05/01:00am SSE 8 11 - - - - - - - 12.3 1022.9 0.4
05/12:30am SSE 8 11 - - - - - - - 12.6 1023.1 0.4
05/12:00am SSE 9 12 - - - - - - - 12.6 1023.0 0.4
 
Date/Time
CDT
Wind Sea
Height
m
Swell Vis
km
Cloud Weather Temp
°C
Press
MSL
hPa
Rain since
9am
mm
Dir  Spd
kts
Gust
kts
Height
m
Period
s
Dir
04/11:30pm SE 9 12 - - - - - - - 12.7 1023.1 0.4
04/11:00pm SSE 9 11 - - - - - - - 12.7 1023.1 0.4
04/10:30pm SE 8 12 - - - - - - - 12.9 1023.1 0.4
04/10:00pm SSE 7 11 - - - - - - - 12.9 1023.1 0.4
04/09:30pm SE 7 11 - - - - - - - 12.8 1023.2 0.4
04/09:00pm SE 9 12 - - - - - - - 13.0 1022.9 0.4
04/08:30pm SE 10 13 - - - - - - - 13.2 1023.0 0.4
04/08:00pm SE 10 15 - - - - - - - 13.3 1022.8 0.4
04/07:30pm SE 11 15 - - - - - - - 13.4 1022.7 0.4
04/07:00pm SE 12 16 - - - - - - - 14.0 1022.3 0.4
04/06:30pm SE 10 13 - - - - - - - 14.2 1022.2 0.4
04/06:00pm SE 10 14 - - - - - - - 15.1 1021.6 0.4
04/05:30pm SE 9 13 - - - - - - - 15.6 1021.7 0.4
04/05:00pm SSE 9 12 - - - - - - - 15.3 1021.6 0.4
04/04:30pm SSE 9 12 - - - - - - - 15.8 1021.6 0.4
04/04:00pm SSE 10 13 - - - - - - - 15.8 1021.8 0.4
04/03:30pm S 9 13 - - - - - - - 16.2 1021.9 0.4
04/03:00pm SSE 7 10 - - - - - - - 15.1 1021.9 0.4
04/02:30pm S 8 12 - - - - - - Recent precip. 13.8 1021.8 0.4
04/02:00pm E 7 13 - - - - - - - 15.1 1021.4 0.2
04/01:30pm S 10 14 - - - - - - - 15.4 1021.8 0.2
04/01:00pm S 10 14 - - - - - - - 16.1 1021.9 0.2
04/12:30pm SSE 7 13 - - - - - - - 15.7 1021.9 0.2
04/12:00pm SE 12 20 - - - - - - - 14.6 1022.0 0.2
04/11:30am NNW 8 12 - - - - - - Recent precip. 14.8 1021.7 0.2
04/11:00am WNW 11 18 - - - - - - - 13.3 1021.4 0.2
04/10:30am NW 9 14 - - - - - - - 15.9 1021.2 0.0
04/10:00am NNE 8 12 - - - - - - - 16.0 1021.0 0.0
04/09:30am NNE 8 12 - - - - - - - 15.9 1020.8 0.0
04/09:00am N 9 14 - - - - - - - 14.5 1020.7 0.0
04/08:30am NW 9 13 - - - - - - - 14.9 1020.3 0.0
04/08:00am WNW 11 16 - - - - - - - 14.6 1020.0 0.0
04/07:30am W 16 22 - - - - - - - 13.9 1019.7 0.0
04/07:25am W 15 21 - - - - - - - 13.8 1019.7 0.0
04/07:00am NNW 9 14 - - - - - - - 12.9 1019.5 0.0
04/06:30am WNW 9 15 - - - - - - - 13.4 1019.3 0.0
04/06:00am N 10 15 - - - - - - - 13.7 1018.6 0.0
04/05:30am W 15 20 - - - - - - - 14.0 1018.6 0.0
04/05:00am NW 11 18 - - - - - - - 13.7 1018.3 0.0
04/04:30am NW 11 17 - - - - - - - 13.6 1018.3 0.0
04/04:00am W 13 19 - - - - - - - 13.6 1018.2 0.0
04/03:30am WNW 11 17 - - - - - - - 13.9 1018.3 0.0
04/03:00am W 14 22 - - - - - - - 14.1 1018.4 0.0
04/02:30am W 14 19 - - - - - - - 14.0 1018.4 0.0
04/02:00am W 16 22 - - - - - - - 13.8 1018.7 0.0
04/01:30am W 11 15 - - - - - - - 14.0 1019.0 0.0
04/01:00am W 12 17 - - - - - - - 13.8 1019.2 0.0
04/12:30am W 13 19 - - - - - - - 14.0 1019.5 0.0
04/12:00am W 14 21 - - - - - - - 13.9 1019.8 0.0
 
Date/Time
CDT
Wind Sea
Height
m
Swell Vis
km
Cloud Weather Temp
°C
Press
MSL
hPa
Rain since
9am
mm
Dir  Spd
kts
Gust
kts
Height
m
Period
s
Dir
03/11:30pm W 11 18 - - - - - - - 13.8 1019.9 0.0
03/11:00pm WNW 9 15 - - - - - - - 13.8 1020.1 0.0
03/10:30pm NNW 7 15 - - - - - - - 13.8 1020.1 0.0
03/10:00pm N 7 11 - - - - - - - 13.6 1020.1 0.0
03/09:30pm NNE 7 11 - - - - - - - 13.7 1020.0 0.0
03/09:00pm NNW 7 12 - - - - - - - 13.7 1020.0 0.0
03/08:30pm W 8 11 - - - - - - - 13.9 1019.8 0.0
03/08:00pm W 9 13 - - - - - - - 13.9 1019.8 0.0
03/07:30pm NW 7 12 - - - - - - - 14.0 1019.7 0.0
03/07:00pm W 6 10 - - - - - - - 14.1 1019.9 0.0
03/06:30pm NNW 6 11 - - - - - - - 14.3 1019.8 0.0
03/06:00pm N 7 10 - - - - - - - 14.7 1019.9 0.0
03/05:30pm NNE 7 11 - - - - - - - 15.0 1019.9 0.0
03/05:00pm NNW 8 13 - - - - - - - 14.9 1020.2 0.0
03/04:30pm N 7 12 - - - - - - - 15.5 1020.4 0.0
03/04:00pm NW 8 14 - - - - - - - 15.7 1020.5 0.0
03/03:30pm NNW 9 13 - - - - - - - 16.0 1020.6 0.0
03/03:00pm N 8 14 - - - - - - - 15.9 1020.7 0.0

Other formats

Comma delimited format used in spreadsheet applications
http://www.bom.gov.au/fwo/IDS60701/IDS60701.94826.axf

JavaScript Object Notation format (JSON) in row-major order
http://www.bom.gov.au/fwo/IDS60701/IDS60701.94826.json

Data quality

Most of these data are generated automatically and are frequently updated. Quality checks on data are not normally performed. It is possible for incorrect values to appear. Refer to information at About Latest Weather Observations and please check the disclaimer before using these data.